Time;durP1;ratioP1;P1;durP2;ratioP2;P2;SDS_P1;SDS_P2;PMS_P1;PMS_P2;Temp;Humidity;BMP_temperature;BMP_pressure;BME280_temperature;BME280_humidity;BME280_pressure;Samples;Min_cycle;Max_cycle;Signal;HPM_P1;HPM_P2
2021/12/06 00:01:36;;;;;;;9.90;2.05;;;21.60;99.70;;;;;;5020956;28;20375;-74
2021/12/06 00:04:13;;;;;;;12.05;1.92;;;21.70;99.50;;;;;;5019696;28;20056;-75
2021/12/06 00:06:43;;;;;;;13.80;3.05;;;21.80;99.20;;;;;;5018928;28;20104;-73
2021/12/06 00:09:14;;;;;;;11.40;1.70;;;21.90;98.90;;;;;;5019075;28;20385;-73
2021/12/06 00:11:41;;;;;;;7.88;1.60;;;22.00;98.80;;;;;;5019890;28;20022;-73
2021/12/06 00:14:09;;;;;;;11.27;1.40;;;22.00;98.60;;;;;;5019137;28;20064;-71
2021/12/06 00:16:37;;;;;;;10.25;1.40;;;22.10;98.40;;;;;;5020639;28;20040;-70
2021/12/06 00:19:06;;;;;;;8.18;1.20;;;22.20;98.40;;;;;;5017910;28;20089;-70
2021/12/06 00:21:34;;;;;;;13.30;1.98;;;22.50;97.90;;;;;;5020096;28;20044;-71
2021/12/06 00:24:02;;;;;;;8.38;1.95;;;22.60;97.40;;;;;;5018613;28;20021;-71
2021/12/06 00:26:29;;;;;;;11.13;1.80;;;22.80;97.50;;;;;;5019159;28;20108;-71
2021/12/06 00:28:58;;;;;;;5.78;1.65;;;22.90;96.90;;;;;;5017473;28;20083;-70
2021/12/06 00:31:32;;;;;;;7.85;1.60;;;22.90;96.60;;;;;;5018239;28;20041;-71
2021/12/06 00:34:07;;;;;;;10.73;1.40;;;23.00;96.50;;;;;;5015783;28;20112;-72
2021/12/06 00:36:37;;;;;;;9.05;1.60;;;23.10;95.80;;;;;;5017249;28;20025;-71
2021/12/06 00:39:09;;;;;;;9.40;1.40;;;23.20;95.70;;;;;;5014178;28;20690;-72
2021/12/06 00:41:37;;;;;;;10.48;1.63;;;23.10;95.20;;;;;;5017099;28;20033;-71
2021/12/06 00:44:07;;;;;;;7.53;1.45;;;22.90;95.70;;;;;;5014942;28;20018;-71
2021/12/06 00:46:37;;;;;;;10.45;2.03;;;22.80;95.60;;;;;;5018661;28;20525;-70
2021/12/06 00:49:10;;;;;;;10.30;1.77;;;22.80;95.80;;;;;;5016635;28;20493;-72
2021/12/06 00:51:38;;;;;;;8.75;2.33;;;22.50;96.00;;;;;;5016625;28;20091;-71
2021/12/06 00:54:05;;;;;;;7.90;1.45;;;22.40;96.10;;;;;;5018772;28;20033;-70
2021/12/06 00:56:32;;;;;;;5.53;1.23;;;22.40;96.40;;;;;;5019171;28;20029;-71
2021/12/06 00:58:59;;;;;;;16.58;2.35;;;22.50;96.30;;;;;;5020275;28;20034;-71
2021/12/06 01:01:27;;;;;;;6.72;1.25;;;22.70;96.30;;;;;;5018805;28;20026;-71
2021/12/06 01:03:54;;;;;;;10.43;1.65;;;22.60;96.30;;;;;;5019440;28;20092;-72
2021/12/06 01:06:22;;;;;;;7.07;1.30;;;22.60;96.60;;;;;;5018449;28;20029;-70
2021/12/06 01:08:49;;;;;;;11.73;2.13;;;22.60;96.50;;;;;;5018206;28;20018;-73
2021/12/06 01:11:16;;;;;;;11.65;1.77;;;22.50;96.50;;;;;;5015874;28;20021;-70
2021/12/06 01:13:44;;;;;;;11.48;1.77;;;22.50;96.30;;;;;;5016881;28;20104;-70
2021/12/06 01:16:12;;;;;;;9.23;1.20;;;22.70;96.40;;;;;;5016601;28;20052;-70
2021/12/06 01:18:40;;;;;;;13.98;2.60;;;22.70;96.20;;;;;;5017333;28;20736;-70
2021/12/06 01:21:18;;;;;;;6.90;1.50;;;22.70;95.90;;;;;;5017530;28;20033;-72
2021/12/06 01:39:17;;;;;;;14.45;2.00;;;22.90;95.40;;;;;;5019800;28;20698;-73
2021/12/06 01:41:49;;;;;;;9.70;1.20;;;22.90;95.30;;;;;;5017299;28;20083;-74
2021/12/06 01:44:35;;;;;;;8.25;1.67;;;22.80;95.30;;;;;;5017299;28;20032;-75
2021/12/06 01:47:09;;;;;;;14.77;2.10;;;22.70;95.90;;;;;;5018333;28;20971;-71
2021/12/06 01:49:46;;;;;;;11.95;2.10;;;22.70;96.10;;;;;;5017546;28;20013;-72
2021/12/06 01:52:24;;;;;;;10.00;1.45;;;22.90;95.50;;;;;;5019246;28;20060;-71
2021/12/06 01:54:52;;;;;;;11.57;1.95;;;22.90;95.10;;;;;;5016795;28;20018;-74
2021/12/06 01:57:20;;;;;;;9.90;1.80;;;23.10;95.40;;;;;;5018622;28;20040;-75
2021/12/06 01:59:48;;;;;;;11.45;1.60;;;23.00;95.70;;;;;;5016485;28;20691;-74
2021/12/06 02:02:16;;;;;;;10.65;1.77;;;23.20;95.70;;;;;;5019274;28;20030;-74
2021/12/06 02:04:44;;;;;;;7.03;1.73;;;23.30;95.20;;;;;;5013931;28;20061;-72
2021/12/06 02:07:15;;;;;;;14.18;1.63;;;23.40;94.80;;;;;;4997703;28;20088;-73
2021/12/06 02:09:47;;;;;;;9.73;1.70;;;23.30;94.00;;;;;;4998175;28;20033;-71
2021/12/06 02:12:15;;;;;;;8.77;1.90;;;23.20;94.70;;;;;;5014709;28;20018;-72
2021/12/06 02:14:55;;;;;;;8.88;1.40;;;23.30;94.50;;;;;;5017279;28;20282;-72
2021/12/06 02:17:34;;;;;;;9.10;1.40;;;23.20;94.70;;;;;;5018199;28;20109;-72
2021/12/06 02:20:28;;;;;;;11.10;2.20;;;23.00;94.70;;;;;;5015513;28;20025;-73
2021/12/06 02:22:57;;;;;;;11.35;2.25;;;22.90;94.70;;;;;;5015010;28;20025;-75
2021/12/06 02:25:25;;;;;;;8.30;1.42;;;22.70;94.60;;;;;;5015955;28;20474;-74
2021/12/06 02:27:53;;;;;;;9.60;2.08;;;22.60;94.60;;;;;;5014391;28;20041;-74
2021/12/06 02:30:21;;;;;;;11.75;1.80;;;22.50;94.80;;;;;;5016396;28;20030;-74
2021/12/06 02:32:50;;;;;;;7.57;1.17;;;22.50;95.20;;;;;;5016374;28;20508;-74
2021/12/06 02:35:21;;;;;;;11.77;1.75;;;22.40;95.30;;;;;;5014211;28;20113;-73
2021/12/06 02:37:51;;;;;;;11.45;1.75;;;22.30;95.40;;;;;;5017826;28;20537;-75
2021/12/06 02:40:24;;;;;;;11.60;1.27;;;22.30;95.80;;;;;;5014995;28;20044;-74
2021/12/06 02:42:52;;;;;;;10.82;1.45;;;22.20;95.20;;;;;;5018180;28;20021;-74
2021/12/06 02:45:22;;;;;;;6.82;1.10;;;22.10;95.40;;;;;;5016715;28;20143;-75
2021/12/06 02:47:53;;;;;;;6.20;0.93;;;22.10;95.10;;;;;;5017645;28;20109;-71
2021/12/06 02:50:24;;;;;;;8.20;1.67;;;22.10;95.40;;;;;;5015787;28;20025;-73
2021/12/06 02:52:51;;;;;;;9.45;1.50;;;22.10;95.20;;;;;;5018609;28;20578;-74
2021/12/06 02:55:37;;;;;;;6.10;2.17;;;22.10;94.90;;;;;;5016456;28;20050;-74
2021/12/06 02:59:02;;;;;;;10.52;2.72;;;22.00;94.80;;;;;;5017038;28;20022;-75
2021/12/06 03:01:18;;;;;;;6.22;1.10;;;22.10;94.90;;;;;;5013793;28;20383;-72
2021/12/06 03:03:45;;;;;;;6.40;0.80;;;22.00;94.60;;;;;;5017471;28;20052;-73
2021/12/06 03:06:14;;;;;;;11.63;2.95;;;22.10;94.70;;;;;;5016319;28;20043;-73
2021/12/06 03:08:54;;;;;;;7.18;1.15;;;22.00;94.50;;;;;;5016603;28;20021;-72
2021/12/06 03:11:29;;;;;;;8.48;1.20;;;22.00;94.40;;;;;;5015399;28;20076;-73
2021/12/06 03:13:57;;;;;;;5.03;1.02;;;22.00;94.60;;;;;;5018008;28;20024;-74
2021/12/06 03:16:25;;;;;;;9.70;1.45;;;21.90;94.30;;;;;;5016198;28;20032;-71
2021/12/06 03:18:54;;;;;;;8.75;1.65;;;22.00;94.10;;;;;;5017745;28;20100;-72
2021/12/06 03:21:22;;;;;;;6.00;1.33;;;22.00;94.20;;;;;;5015904;28;20393;-71
2021/12/06 03:23:50;;;;;;;9.77;2.35;;;22.00;94.00;;;;;;5017830;28;20053;-72
2021/12/06 03:26:18;;;;;;;7.53;1.25;;;22.00;94.20;;;;;;5015669;28;20036;-73
2021/12/06 03:28:47;;;;;;;9.32;1.65;;;21.90;94.40;;;;;;5017562;28;20124;-73
2021/12/06 03:31:15;;;;;;;6.72;1.35;;;21.80;94.40;;;;;;5016612;28;20087;-73
2021/12/06 03:33:47;;;;;;;6.97;1.45;;;21.70;94.70;;;;;;5017011;28;20459;-74
2021/12/06 03:36:16;;;;;;;7.00;1.20;;;21.70;94.90;;;;;;5016607;28;20022;-74
2021/12/06 03:38:45;;;;;;;11.07;1.52;;;21.70;94.80;;;;;;5017762;28;20025;-74
2021/12/06 03:41:15;;;;;;;7.43;2.20;;;21.70;95.10;;;;;;5017538;28;20034;-74
2021/12/06 03:43:43;;;;;;;11.23;1.65;;;21.70;95.30;;;;;;5017068;28;20026;-74
2021/12/06 03:46:12;;;;;;;7.60;0.98;;;21.80;95.10;;;;;;5017721;28;20029;-73
2021/12/06 03:48:40;;;;;;;9.88;1.60;;;21.70;94.80;;;;;;5014426;28;20029;-72
2021/12/06 03:51:08;;;;;;;9.02;1.27;;;21.70;94.70;;;;;;5017113;28;20026;-73
2021/12/06 03:53:35;;;;;;;10.93;1.27;;;21.70;95.00;;;;;;5015128;28;20112;-75
2021/12/06 03:56:04;;;;;;;13.18;1.40;;;21.70;95.00;;;;;;5017684;28;20052;-74
2021/12/06 03:58:32;;;;;;;9.63;1.17;;;21.60;95.00;;;;;;5017053;28;20030;-74
2021/12/06 04:01:02;;;;;;;8.77;1.83;;;21.50;95.20;;;;;;5018072;28;20150;-73
2021/12/06 04:03:32;;;;;;;10.48;1.58;;;21.50;95.60;;;;;;5019171;28;20492;-74
2021/12/06 04:06:00;;;;;;;8.80;1.38;;;21.50;95.30;;;;;;5019352;28;20032;-75
2021/12/06 04:08:27;;;;;;;11.45;2.45;;;21.50;95.30;;;;;;5018683;28;20025;-72
2021/12/06 04:10:55;;;;;;;5.70;2.33;;;21.50;95.10;;;;;;5016951;28;20191;-72
2021/12/06 04:13:23;;;;;;;8.07;1.23;;;21.50;95.50;;;;;;5019258;28;20021;-72
2021/12/06 04:15:51;;;;;;;5.93;1.65;;;21.50;95.70;;;;;;5018209;28;20100;-74
2021/12/06 04:18:18;;;;;;;9.52;2.00;;;21.60;95.80;;;;;;5020732;28;20104;-73
2021/12/06 04:20:46;;;;;;;11.05;1.30;;;21.60;95.60;;;;;;5017601;28;20040;-77
2021/12/06 04:23:14;;;;;;;13.20;1.60;;;21.60;95.90;;;;;;5020066;28;20025;-72
2021/12/06 04:25:42;;;;;;;9.10;1.77;;;21.60;96.50;;;;;;5017568;28;20466;-70
2021/12/06 04:28:14;;;;;;;6.20;1.30;;;21.60;96.10;;;;;;5020221;28;20045;-74
2021/12/06 04:30:43;;;;;;;13.02;1.48;;;21.60;95.80;;;;;;5018463;28;20021;-73
2021/12/06 04:33:10;;;;;;;7.70;1.20;;;21.70;95.60;;;;;;5020626;28;20037;-72
2021/12/06 04:35:39;;;;;;;7.97;1.25;;;21.70;95.40;;;;;;5019943;28;20026;-71
2021/12/06 04:38:07;;;;;;;13.77;1.88;;;21.70;95.40;;;;;;5014141;28;20122;-74
2021/12/06 04:40:37;;;;;;;12.35;1.40;;;21.70;95.50;;;;;;5015501;28;20049;-73
2021/12/06 04:43:08;;;;;;;7.32;1.27;;;21.80;95.30;;;;;;5012770;28;20060;-75
2021/12/06 04:45:37;;;;;;;11.90;1.60;;;21.80;94.90;;;;;;5015566;28;20021;-72
2021/12/06 04:48:06;;;;;;;8.32;1.30;;;21.80;95.00;;;;;;5012934;28;20025;-73
2021/12/06 04:50:36;;;;;;;6.43;1.10;;;21.80;94.70;;;;;;5016153;28;20431;-70
2021/12/06 04:53:13;;;;;;;8.00;2.35;;;21.80;95.20;;;;;;5012575;28;20057;-74
2021/12/06 04:55:56;;;;;;;7.47;1.08;;;21.90;95.20;;;;;;5017564;28;20543;-72
2021/12/06 04:58:28;;;;;;;4.82;1.05;;;21.90;95.60;;;;;;5016983;28;20494;-71
2021/12/06 05:01:09;;;;;;;7.72;1.20;;;22.00;95.20;;;;;;5007745;28;20068;-72
2021/12/06 05:03:37;;;;;;;7.93;1.17;;;22.00;95.20;;;;;;5000581;28;20101;-68
2021/12/06 05:06:14;;;;;;;7.63;1.15;;;22.00;95.20;;;;;;4997174;28;20032;-73
2021/12/06 05:08:46;;;;;;;8.18;1.35;;;22.00;95.10;;;;;;5007937;28;20428;-71
2021/12/06 05:11:14;;;;;;;8.10;1.17;;;22.00;95.30;;;;;;5025330;28;20049;-71
2021/12/06 05:13:44;;;;;;;9.05;1.48;;;21.90;95.30;;;;;;5021954;28;20029;-70
2021/12/06 05:16:11;;;;;;;6.95;1.45;;;22.00;95.30;;;;;;5026024;28;20103;-71
2021/12/06 05:18:39;;;;;;;6.68;1.00;;;22.10;95.80;;;;;;5026190;28;20028;-69
2021/12/06 05:21:07;;;;;;;9.30;1.17;;;22.10;95.80;;;;;;5025547;28;20056;-69
2021/12/06 05:23:34;;;;;;;10.50;1.75;;;22.10;95.50;;;;;;5027222;28;20103;-72
2021/12/06 05:26:02;;;;;;;6.45;1.10;;;22.20;95.50;;;;;;5016014;28;20053;-70
2021/12/06 05:28:32;;;;;;;13.20;1.33;;;22.10;95.20;;;;;;5013927;28;20041;-69
2021/12/06 05:31:00;;;;;;;7.75;2.47;;;22.10;95.80;;;;;;5016859;28;20048;-75
2021/12/06 05:33:30;;;;;;;10.88;1.38;;;22.10;95.90;;;;;;5015601;28;20025;-71
2021/12/06 05:36:03;;;;;;;8.40;1.30;;;22.10;95.80;;;;;;5019206;28;20082;-70
2021/12/06 05:38:31;;;;;;;12.30;1.95;;;22.10;95.80;;;;;;5016741;28;20494;-69
2021/12/06 05:40:59;;;;;;;6.05;0.90;;;22.10;96.20;;;;;;5019724;28;20479;-72
2021/12/06 05:43:26;;;;;;;9.95;1.63;;;22.10;96.20;;;;;;5015969;28;20029;-71
2021/12/06 05:45:55;;;;;;;9.40;1.60;;;22.10;96.40;;;;;;5019536;28;20095;-71
2021/12/06 05:48:22;;;;;;;7.35;1.52;;;22.10;96.10;;;;;;5017046;28;20017;-74
2021/12/06 05:50:50;;;;;;;6.38;1.10;;;22.10;95.90;;;;;;5019007;28;20021;-71
2021/12/06 05:53:18;;;;;;;14.45;1.60;;;21.90;95.90;;;;;;5018979;28;20088;-71
2021/12/06 05:55:46;;;;;;;7.95;1.80;;;21.90;96.00;;;;;;5018439;28;20560;-71
2021/12/06 05:58:17;;;;;;;7.30;1.30;;;21.90;96.20;;;;;;5017872;28;20021;-71
2021/12/06 06:00:45;;;;;;;10.65;1.15;;;21.90;96.20;;;;;;5016922;28;20034;-72
2021/12/06 06:03:12;;;;;;;11.68;1.83;;;21.90;96.20;;;;;;5017573;28;20497;-71
2021/12/06 06:05:40;;;;;;;7.65;1.17;;;21.90;96.20;;;;;;5017273;28;20030;-70
2021/12/06 06:08:08;;;;;;;7.72;1.10;;;21.80;96.10;;;;;;5018799;28;20017;-69
2021/12/06 06:10:36;;;;;;;10.85;2.03;;;21.80;96.50;;;;;;5016212;28;20100;-72
2021/12/06 06:13:06;;;;;;;11.98;1.88;;;21.80;96.20;;;;;;5019745;28;20026;-70
2021/12/06 06:15:34;;;;;;;12.32;1.20;;;21.70;96.40;;;;;;5015381;28;20575;-70
2021/12/06 06:18:02;;;;;;;8.98;2.00;;;21.70;96.50;;;;;;5018360;28;20029;-69
2021/12/06 06:20:36;;;;;;;10.13;1.75;;;21.80;97.00;;;;;;5017388;28;20674;-70
2021/12/06 06:23:04;;;;;;;9.90;2.00;;;21.70;96.50;;;;;;5023896;28;20695;-68
2021/12/06 06:25:32;;;;;;;7.43;1.55;;;21.70;96.70;;;;;;5023371;28;20759;-70
2021/12/06 06:28:00;;;;;;;9.55;1.63;;;21.60;97.10;;;;;;5023987;28;20068;-68
2021/12/06 06:30:29;;;;;;;10.98;1.75;;;21.60;97.00;;;;;;5024220;28;20017;-70
2021/12/06 06:32:58;;;;;;;9.25;1.23;;;21.50;97.00;;;;;;5027702;28;20025;-68
2021/12/06 06:35:26;;;;;;;6.85;1.33;;;21.50;97.20;;;;;;5026488;28;20017;-70
2021/12/06 06:37:53;;;;;;;13.57;2.15;;;21.40;97.60;;;;;;5024132;28;20029;-69
2021/12/06 06:40:21;;;;;;;10.23;2.15;;;21.40;97.60;;;;;;5026438;28;20096;-68
2021/12/06 06:42:48;;;;;;;10.48;1.80;;;21.40;97.50;;;;;;5025941;28;20371;-70
2021/12/06 06:45:19;;;;;;;9.18;1.30;;;21.40;97.30;;;;;;5025883;28;20378;-70
2021/12/06 06:47:47;;;;;;;11.30;1.65;;;21.30;97.30;;;;;;5025298;28;20033;-70
2021/12/06 06:50:15;;;;;;;8.73;1.15;;;21.30;97.40;;;;;;5027258;28;20078;-68
2021/12/06 06:52:43;;;;;;;9.65;1.88;;;21.30;97.50;;;;;;5025858;28;20474;-68
2021/12/06 06:55:12;;;;;;;5.68;1.17;;;21.40;97.70;;;;;;5025167;28;20031;-69
2021/12/06 06:57:41;;;;;;;5.75;1.58;;;21.30;97.60;;;;;;5021690;28;20096;-68
2021/12/06 07:00:18;;;;;;;14.05;1.73;;;21.30;97.90;;;;;;5023665;28;20040;-69
2021/12/06 07:02:45;;;;;;;14.30;2.63;;;21.30;98.00;;;;;;5022963;28;20083;-69
2021/12/06 07:05:13;;;;;;;15.35;3.55;;;21.30;98.00;;;;;;5025169;28;20104;-69
2021/12/06 07:07:41;;;;;;;11.05;2.08;;;21.30;98.00;;;;;;5025525;28;20036;-68
2021/12/06 07:10:09;;;;;;;6.50;1.60;;;21.30;97.90;;;;;;5025495;28;20091;-68
2021/12/06 07:12:44;;;;;;;8.05;2.20;;;21.20;98.00;;;;;;5023200;28;20705;-68
2021/12/06 07:15:15;;;;;;;9.68;2.22;;;21.20;98.30;;;;;;5024761;28;20438;-67
2021/12/06 07:17:44;;;;;;;10.05;1.80;;;21.20;98.30;;;;;;5022064;28;20029;-68
2021/12/06 07:20:13;;;;;;;8.15;1.50;;;21.20;98.10;;;;;;5024446;28;20017;-69
2021/12/06 07:22:42;;;;;;;7.18;1.30;;;21.10;98.00;;;;;;5021810;28;20393;-68
2021/12/06 07:25:11;;;;;;;9.32;1.83;;;21.10;98.20;;;;;;5025519;28;20018;-69
2021/12/06 07:27:39;;;;;;;8.75;1.63;;;21.10;98.10;;;;;;5021370;28;20390;-70
2021/12/06 07:30:09;;;;;;;8.82;1.35;;;21.20;98.10;;;;;;5025279;28;20025;-68
2021/12/06 07:32:36;;;;;;;6.10;1.40;;;21.20;97.90;;;;;;5026683;28;20082;-70
2021/12/06 07:35:05;;;;;;;8.90;1.55;;;21.20;98.20;;;;;;5024086;28;20037;-70
2021/12/06 07:37:32;;;;;;;7.50;1.42;;;21.20;98.10;;;;;;5029231;28;20355;-68
2021/12/06 07:40:00;;;;;;;8.23;1.27;;;21.30;98.30;;;;;;5024113;28;20029;-69
2021/12/06 07:42:27;;;;;;;12.02;2.67;;;21.20;98.40;;;;;;5030173;28;20035;-68
2021/12/06 07:44:55;;;;;;;7.68;1.08;;;21.30;98.40;;;;;;5029774;28;20455;-69
2021/12/06 07:47:22;;;;;;;11.35;1.33;;;21.20;98.40;;;;;;5028916;28;20101;-69
2021/12/06 07:49:50;;;;;;;10.32;1.48;;;21.20;98.50;;;;;;5027439;28;20040;-69
2021/12/06 07:52:17;;;;;;;6.97;1.10;;;21.10;98.40;;;;;;5029923;28;20538;-68
2021/12/06 07:54:45;;;;;;;10.50;1.67;;;21.10;98.60;;;;;;5028180;28;20030;-68
2021/12/06 07:57:13;;;;;;;12.75;2.22;;;21.00;98.80;;;;;;5028825;28;20544;-70
2021/12/06 07:59:41;;;;;;;5.85;1.60;;;21.00;98.70;;;;;;5024300;28;20451;-70
2021/12/06 08:02:09;;;;;;;11.25;2.35;;;21.00;98.80;;;;;;5029126;28;20079;-69
2021/12/06 08:04:39;;;;;;;12.35;1.80;;;20.90;99.10;;;;;;5030290;28;20104;-70
2021/12/06 08:07:06;;;;;;;7.80;1.77;;;20.90;99.20;;;;;;5027017;28;20666;-70
2021/12/06 08:09:33;;;;;;;10.30;2.10;;;20.80;99.50;;;;;;5027573;28;20456;-69
2021/12/06 08:12:01;;;;;;;10.20;1.60;;;20.70;99.60;;;;;;5025135;28;20017;-71
2021/12/06 08:14:28;;;;;;;10.38;2.33;;;20.70;99.70;;;;;;5028697;28;20021;-69
2021/12/06 08:16:55;;;;;;;7.25;2.22;;;20.70;99.60;;;;;;5029080;28;20096;-68
2021/12/06 08:19:23;;;;;;;10.30;3.92;;;20.70;99.60;;;;;;5028052;28;20017;-68
2021/12/06 08:21:50;;;;;;;7.97;2.67;;;20.70;99.80;;;;;;5026908;28;20029;-70
2021/12/06 08:24:17;;;;;;;10.98;2.75;;;20.60;99.90;;;;;;5030165;28;20078;-68
2021/12/06 08:26:47;;;;;;;14.00;2.97;;;20.60;99.90;;;;;;5028300;28;20033;-70
2021/12/06 08:29:16;;;;;;;11.35;2.90;;;20.50;99.90;;;;;;5027516;28;20046;-69
2021/12/06 08:31:45;;;;;;;10.55;1.85;;;20.50;99.90;;;;;;5028833;28;20044;-70
2021/12/06 08:34:13;;;;;;;10.45;2.00;;;20.40;99.90;;;;;;5029482;28;20136;-68
2021/12/06 08:36:41;;;;;;;9.90;3.28;;;20.40;99.90;;;;;;5025169;28;20047;-69
2021/12/06 08:39:08;;;;;;;7.63;2.63;;;20.40;99.90;;;;;;5026936;28;20089;-69
2021/12/06 08:41:36;;;;;;;8.43;1.85;;;20.30;99.90;;;;;;5028987;28;20025;-68
2021/12/06 08:44:04;;;;;;;9.40;1.75;;;20.20;99.90;;;;;;5027386;28;20021;-68
2021/12/06 08:46:37;;;;;;;8.73;1.70;;;20.20;99.90;;;;;;5027457;28;20103;-69
2021/12/06 08:49:05;;;;;;;5.93;1.60;;;20.20;99.90;;;;;;5022901;28;20425;-69
2021/12/06 08:51:38;;;;;;;6.53;1.70;;;20.20;99.90;;;;;;5028995;28;20021;-69
2021/12/06 08:54:07;;;;;;;10.75;2.10;;;20.20;99.90;;;;;;5029013;28;20033;-69
2021/12/06 08:56:36;;;;;;;7.70;2.15;;;20.20;99.90;;;;;;5027874;28;20379;-68
2021/12/06 08:59:05;;;;;;;10.00;1.90;;;20.20;99.90;;;;;;5026186;28;20062;-70
2021/12/06 09:01:33;;;;;;;8.65;1.75;;;20.20;99.90;;;;;;5025094;28;20057;-68
2021/12/06 09:04:00;;;;;;;9.40;2.03;;;20.10;99.90;;;;;;5025824;28;20018;-68
2021/12/06 09:06:28;;;;;;;10.80;1.75;;;20.10;99.90;;;;;;5020849;28;20029;-68
2021/12/06 09:08:56;;;;;;;9.32;1.70;;;20.10;99.90;;;;;;5025920;28;20054;-70
2021/12/06 09:11:23;;;;;;;8.63;1.55;;;20.10;99.90;;;;;;5028826;28;20067;-69
2021/12/06 09:13:51;;;;;;;6.78;1.40;;;20.10;99.90;;;;;;5028524;28;20053;-70
2021/12/06 09:16:18;;;;;;;6.50;1.85;;;20.10;99.90;;;;;;5031968;28;20043;-68
2021/12/06 09:18:45;;;;;;;16.13;3.22;;;20.00;99.90;;;;;;5039531;28;20025;-68
2021/12/06 09:21:17;;;;;;;6.78;1.95;;;20.00;99.90;;;;;;5037888;28;20032;-68
2021/12/06 09:23:45;;;;;;;9.43;2.25;;;20.10;99.90;;;;;;5038580;28;20049;-69
2021/12/06 09:26:13;;;;;;;9.50;1.77;;;20.10;99.90;;;;;;5037715;28;20029;-70
2021/12/06 09:28:41;;;;;;;9.30;3.83;;;20.00;99.90;;;;;;5038706;28;20044;-68
2021/12/06 09:31:09;;;;;;;9.25;3.08;;;20.00;99.90;;;;;;5037194;28;20032;-71
2021/12/06 09:33:37;;;;;;;9.38;1.80;;;20.10;99.90;;;;;;5038890;28;20773;-69
2021/12/06 09:36:06;;;;;;;6.93;1.95;;;20.10;99.90;;;;;;5037310;28;20127;-69
2021/12/06 09:38:39;;;;;;;11.95;2.90;;;20.00;99.90;;;;;;5038363;28;20103;-70
2021/12/06 09:41:23;;;;;;;10.27;3.55;;;20.00;99.90;;;;;;5035566;28;20394;-70
2021/12/06 09:43:53;;;;;;;7.40;1.80;;;20.00;99.90;;;;;;5036947;28;20021;-70
2021/12/06 09:46:22;;;;;;;8.55;2.85;;;20.00;99.90;;;;;;5036834;28;20029;-70
2021/12/06 09:48:49;;;;;;;8.45;2.10;;;20.00;99.90;;;;;;5037672;28;20265;-70
2021/12/06 09:51:24;;;;;;;11.93;3.08;;;20.00;99.90;;;;;;5036854;28;20013;-71
2021/12/06 09:53:54;;;;;;;8.60;1.65;;;20.00;99.90;;;;;;5037835;28;20668;-69
2021/12/06 09:56:25;;;;;;;10.48;2.33;;;20.00;99.90;;;;;;5036812;28;20535;-70
2021/12/06 09:58:53;;;;;;;8.98;2.20;;;19.90;99.90;;;;;;5037708;28;20108;-69
2021/12/06 10:01:24;;;;;;;8.02;1.83;;;19.90;99.90;;;;;;5036750;28;20139;-70
2021/12/06 10:03:54;;;;;;;11.68;2.22;;;19.90;99.90;;;;;;5038076;28;20108;-69
2021/12/06 10:06:23;;;;;;;7.55;2.22;;;20.00;99.90;;;;;;5036692;28;20255;-70
2021/12/06 10:08:54;;;;;;;9.73;2.10;;;20.00;99.90;;;;;;5038014;28;20044;-71
2021/12/06 10:11:23;;;;;;;9.35;2.00;;;19.90;99.90;;;;;;5035511;28;20426;-70
2021/12/06 10:13:51;;;;;;;11.65;2.75;;;19.90;99.90;;;;;;5037688;28;20021;-72
2021/12/06 10:16:19;;;;;;;10.07;2.55;;;19.90;99.90;;;;;;5021640;28;20028;-76
2021/12/06 10:18:47;;;;;;;8.77;2.15;;;19.90;99.90;;;;;;4999095;28;20022;-73
2021/12/06 10:21:15;;;;;;;8.77;3.35;;;19.90;99.90;;;;;;4996335;28;20033;-73
2021/12/06 10:23:43;;;;;;;10.57;2.25;;;19.90;99.90;;;;;;5018008;28;20067;-73
2021/12/06 10:26:17;;;;;;;6.47;1.92;;;19.90;99.90;;;;;;5008097;28;20462;-72
2021/12/06 10:28:44;;;;;;;8.00;1.60;;;19.90;99.90;;;;;;4996697;28;20053;-72
2021/12/06 10:31:14;;;;;;;10.48;1.88;;;19.90;99.90;;;;;;4994602;28;20080;-72
2021/12/06 10:33:46;;;;;;;9.50;2.17;;;19.90;99.90;;;;;;4998855;28;20095;-74
2021/12/06 10:36:18;;;;;;;6.45;1.55;;;19.90;99.90;;;;;;5009290;28;20041;-74
2021/12/06 10:38:53;;;;;;;6.88;1.45;;;19.90;99.90;;;;;;4997036;28;20026;-72
2021/12/06 10:41:29;;;;;;;8.27;2.15;;;19.80;99.90;;;;;;4996282;28;20061;-74
2021/12/06 10:43:59;;;;;;;8.27;2.13;;;19.90;99.90;;;;;;4996661;28;20030;-74
2021/12/06 10:46:28;;;;;;;10.43;1.95;;;19.80;99.90;;;;;;4995345;28;20014;-78
2021/12/06 10:48:59;;;;;;;6.10;1.48;;;19.80;99.90;;;;;;4997272;28;20371;-75
2021/12/06 10:51:28;;;;;;;9.07;1.50;;;19.80;99.90;;;;;;4996376;28;20493;-73
2021/12/06 10:54:17;;;;;;;7.38;2.20;;;19.80;99.90;;;;;;4997033;28;20092;-74
2021/12/06 10:56:47;;;;;;;8.05;1.60;;;19.80;99.90;;;;;;4996590;28;20026;-73
2021/12/06 10:59:24;;;;;;;7.10;1.85;;;19.80;99.90;;;;;;4996342;28;20021;-74
2021/12/06 11:01:57;;;;;;;6.60;1.58;;;19.80;99.90;;;;;;4998324;28;20041;-74
2021/12/06 11:04:27;;;;;;;7.10;1.45;;;19.80;99.90;;;;;;4996767;28;20033;-75
2021/12/06 11:07:05;;;;;;;10.05;1.63;;;19.80;99.90;;;;;;4997276;28;20041;-75
2021/12/06 11:09:35;;;;;;;8.52;2.05;;;19.80;99.90;;;;;;4995877;28;20388;-76
2021/12/06 11:12:05;;;;;;;5.65;1.52;;;19.70;99.90;;;;;;5013228;28;20428;-74
2021/12/06 11:14:43;;;;;;;7.75;1.67;;;19.80;99.90;;;;;;5015088;28;20029;-75
2021/12/06 11:17:19;;;;;;;6.95;1.30;;;19.70;99.90;;;;;;5002355;28;20033;-77
2021/12/06 11:19:51;;;;;;;11.43;2.40;;;19.80;99.90;;;;;;5034225;28;20009;-74
2021/12/06 11:22:24;;;;;;;8.25;2.13;;;19.70;99.90;;;;;;5035741;28;20052;-73
2021/12/06 11:24:53;;;;;;;7.82;1.98;;;19.70;99.90;;;;;;5036968;28;20739;-73
2021/12/06 11:27:27;;;;;;;9.68;1.50;;;19.60;99.90;;;;;;5001656;28;20930;-73
2021/12/06 11:30:06;;;;;;;8.45;3.20;;;19.60;99.90;;;;;;4996805;28;20038;-72
2021/12/06 11:32:44;;;;;;;7.82;3.85;;;19.60;99.90;;;;;;4994924;28;20026;-74
2021/12/06 11:35:12;;;;;;;10.18;2.90;;;19.50;99.90;;;;;;4996652;28;20056;-72
2021/12/06 11:37:44;;;;;;;9.30;2.08;;;19.50;99.90;;;;;;4996225;28;20029;-74
2021/12/06 11:40:17;;;;;;;7.60;1.60;;;19.50;99.90;;;;;;4996174;28;20511;-74
2021/12/06 11:42:48;;;;;;;9.40;1.85;;;19.40;99.90;;;;;;4997226;28;20119;-74
2021/12/06 11:45:16;;;;;;;9.65;2.30;;;19.40;99.90;;;;;;4997205;28;20026;-74
2021/12/06 11:47:43;;;;;;;17.85;1.85;;;19.40;99.90;;;;;;4995239;28;20478;-72
2021/12/06 11:50:10;;;;;;;8.15;1.98;;;19.40;99.90;;;;;;4995951;28;20525;-74
2021/12/06 11:52:37;;;;;;;7.28;2.30;;;19.40;99.90;;;;;;4995829;28;20200;-74
2021/12/06 11:55:11;;;;;;;7.28;1.80;;;19.40;99.90;;;;;;4998187;28;20378;-73
2021/12/06 11:57:46;;;;;;;10.00;1.60;;;19.40;99.90;;;;;;5007446;28;20109;-73
2021/12/06 12:00:18;;;;;;;9.68;1.70;;;19.40;99.90;;;;;;5009146;28;20038;-73
2021/12/06 12:02:53;;;;;;;;;;;19.40;99.90;;;;;;5011400;28;20355;-73
2021/12/06 12:05:26;;;;;;;10.82;3.10;;;19.40;99.90;;;;;;5011724;28;19921;-74
2021/12/06 12:08:15;;;;;;;6.57;2.30;;;19.40;99.90;;;;;;5010727;28;20208;-74
2021/12/06 12:10:53;;;;;;;11.00;1.73;;;19.30;99.90;;;;;;5010304;28;20732;-73
2021/12/06 12:13:28;;;;;;;16.27;1.98;;;19.40;99.90;;;;;;5011732;28;20028;-76
2021/12/06 12:16:01;;;;;;;11.30;2.38;;;19.40;99.90;;;;;;5010410;28;20290;-74
2021/12/06 12:18:30;;;;;;;9.30;1.90;;;19.40;99.90;;;;;;5009994;28;20130;-74
2021/12/06 12:20:58;;;;;;;7.10;2.13;;;19.30;99.90;;;;;;5015261;28;20120;-73
2021/12/06 12:23:30;;;;;;;10.50;2.88;;;19.40;99.90;;;;;;5019600;28;20021;-74
2021/12/06 12:26:06;;;;;;;7.13;1.75;;;19.30;99.90;;;;;;5019948;28;20036;-72
2021/12/06 12:28:39;;;;;;;9.07;2.30;;;19.30;99.90;;;;;;5018799;28;20061;-72
2021/12/06 12:31:11;;;;;;;8.35;2.47;;;19.30;99.90;;;;;;5020282;28;20045;-73
2021/12/06 12:33:39;;;;;;;8.85;3.20;;;19.30;99.90;;;;;;5020213;28;20025;-73
2021/12/06 12:36:16;;;;;;;7.38;2.22;;;19.30;99.90;;;;;;5018824;28;20033;-73
2021/12/06 12:38:47;;;;;;;8.02;2.42;;;19.30;99.90;;;;;;5018187;28;20044;-73
2021/12/06 12:41:19;;;;;;;7.60;2.13;;;19.30;99.90;;;;;;5017763;28;20033;-73
2021/12/06 12:43:54;;;;;;;11.77;2.05;;;19.30;99.90;;;;;;5019259;28;20439;-72
2021/12/06 12:46:26;;;;;;;8.60;2.28;;;19.20;99.90;;;;;;5019776;28;20374;-72
2021/12/06 12:48:55;;;;;;;7.68;2.17;;;19.10;99.90;;;;;;5020159;28;20022;-73
2021/12/06 12:51:44;;;;;;;9.95;1.92;;;19.20;99.90;;;;;;5018527;28;20441;-72
2021/12/06 12:54:28;;;;;;;7.47;1.75;;;19.20;99.90;;;;;;5020274;28;20055;-71
2021/12/06 12:57:13;;;;;;;10.80;2.40;;;19.20;99.90;;;;;;5019576;28;20068;-71
2021/12/06 12:59:57;;;;;;;10.98;2.45;;;19.20;99.90;;;;;;5017941;28;20129;-73
2021/12/06 13:02:35;;;;;;;10.68;2.20;;;19.20;99.90;;;;;;5017497;28;20425;-74
2021/12/06 13:05:10;;;;;;;6.03;1.60;;;19.20;99.90;;;;;;5019233;28;20021;-72
2021/12/06 13:07:41;;;;;;;8.77;1.73;;;19.10;99.90;;;;;;5016034;28;20079;-72
2021/12/06 13:10:38;;;;;;;7.13;1.50;;;19.10;99.90;;;;;;5020247;28;20052;-71
2021/12/06 13:13:27;;;;;;;6.15;1.50;;;19.10;99.90;;;;;;5020394;28;20474;-72
2021/12/06 13:16:11;;;;;;;16.05;2.10;;;19.10;99.90;;;;;;5018871;28;20729;-70